createdAt,value
2018-02-04T00:00:40.977Z,0.50
2018-02-04T00:03:08.396Z,0.50
2018-02-04T00:05:35.934Z,0.50
2018-02-04T00:08:03.359Z,0.40
2018-02-04T00:10:30.840Z,0.40
2018-02-04T00:12:58.607Z,0.40
2018-02-04T00:15:26.034Z,0.40
2018-02-04T00:17:53.516Z,0.40
2018-02-04T00:20:20.974Z,0.30
2018-02-04T00:22:48.402Z,0.40
2018-02-04T00:25:16.620Z,0.30
2018-02-04T00:27:44.293Z,0.30
2018-02-04T00:30:11.732Z,0.30
2018-02-04T00:32:39.156Z,0.30
2018-02-04T00:35:06.849Z,0.30
2018-02-04T00:37:34.277Z,0.30
2018-02-04T00:40:01.760Z,0.30
2018-02-04T00:42:29.194Z,0.30
2018-02-04T00:44:56.615Z,0.30
2018-02-04T00:47:24.132Z,0.30
2018-02-04T00:49:51.568Z,0.20
2018-02-04T00:52:19.000Z,0.30
2018-02-04T00:54:47.220Z,0.20
2018-02-04T00:57:14.688Z,0.20
2018-02-04T00:59:42.114Z,0.20
2018-02-04T01:02:09.592Z,0.30
2018-02-04T01:04:37.055Z,0.20
2018-02-04T01:07:04.503Z,0.30
2018-02-04T01:09:31.928Z,0.30
2018-02-04T01:12:00.131Z,0.30
2018-02-04T01:14:27.602Z,0.20
2018-02-04T01:16:55.060Z,0.30
2018-02-04T01:19:22.819Z,0.30
2018-02-04T01:21:50.236Z,0.30
2018-02-04T01:24:18.424Z,0.30
2018-02-04T01:26:45.862Z,0.30
2018-02-04T01:29:14.083Z,0.40
2018-02-04T01:31:41.526Z,0.30
2018-02-04T01:34:08.960Z,0.40
2018-02-04T01:36:36.380Z,0.40
2018-02-04T01:39:03.808Z,0.40
2018-02-04T01:41:31.483Z,0.40
2018-02-04T01:43:58.915Z,0.40
2018-02-04T01:46:26.381Z,0.40
2018-02-04T01:48:53.839Z,0.40
2018-02-04T01:51:21.248Z,0.40
2018-02-04T01:53:49.463Z,0.50
2018-02-04T01:56:16.903Z,0.40
2018-02-04T01:58:44.378Z,0.50
2018-02-04T02:01:11.783Z,0.50
2018-02-04T02:03:40.012Z,0.50
2018-02-04T02:06:07.473Z,0.50
2018-02-04T02:08:34.954Z,0.50
2018-02-04T02:11:02.620Z,0.50
2018-02-04T02:13:30.144Z,0.50
2018-02-04T02:15:57.556Z,0.50
2018-02-04T02:18:25.757Z,0.60
2018-02-04T02:20:53.182Z,0.50
2018-02-04T02:23:20.599Z,0.60
2018-02-04T02:25:48.355Z,0.50
2018-02-04T02:28:15.839Z,0.60
2018-02-04T02:30:43.264Z,0.60
2018-02-04T02:33:10.698Z,0.60
2018-02-04T02:35:38.132Z,0.60
2018-02-04T02:38:05.552Z,0.60
2018-02-04T02:40:32.991Z,0.60
2018-02-04T02:43:00.411Z,0.60
2018-02-04T02:45:28.603Z,0.50
2018-02-04T02:47:56.087Z,0.50
2018-02-04T02:50:23.513Z,0.60
2018-02-04T02:52:50.993Z,0.60
2018-02-04T02:55:18.420Z,0.60
2018-02-04T02:57:46.610Z,0.60
2018-02-04T03:00:14.040Z,0.60
2018-02-04T03:02:42.244Z,0.60
2018-02-04T03:05:09.663Z,0.60
2018-02-04T03:07:37.172Z,0.60
2018-02-04T03:10:04.579Z,0.60
2018-02-04T03:12:31.999Z,0.60
2018-02-04T03:14:59.451Z,0.60
2018-02-04T03:17:27.216Z,0.60
2018-02-04T03:19:54.697Z,0.60
2018-02-04T03:22:22.234Z,0.60
2018-02-04T03:24:49.680Z,0.60
2018-02-04T03:27:17.096Z,0.60
2018-02-04T03:29:45.316Z,0.70
2018-02-04T03:32:12.776Z,0.60
2018-02-04T03:34:40.232Z,0.70
2018-02-04T03:37:07.688Z,0.70
2018-02-04T03:39:35.452Z,0.70
2018-02-04T03:42:02.881Z,0.70
2018-02-04T03:44:30.307Z,0.70
2018-02-04T03:46:57.823Z,0.70
2018-02-04T03:49:25.253Z,0.70
2018-02-04T03:51:53.452Z,0.70
2018-02-04T03:54:20.921Z,0.70
2018-02-04T03:56:48.344Z,0.70
2018-02-04T03:59:15.824Z,0.70
2018-02-04T04:01:43.260Z,0.70
2018-02-04T04:04:10.691Z,0.70
2018-02-04T04:06:38.890Z,0.80
2018-02-04T04:09:06.583Z,0.70
2018-02-04T04:11:34.027Z,0.70
2018-02-04T04:14:01.448Z,0.70
2018-02-04T04:16:29.648Z,0.80
2018-02-04T04:18:57.076Z,0.70
2018-02-04T04:21:25.275Z,0.80
2018-02-04T04:23:52.716Z,0.70
2018-02-04T04:26:20.921Z,0.80
2018-02-04T04:28:48.398Z,0.80
2018-02-04T04:31:16.152Z,0.80
2018-02-04T04:33:43.607Z,0.80
2018-02-04T04:36:11.040Z,0.80
2018-02-04T04:38:38.522Z,0.80
2018-02-04T04:41:05.979Z,0.80
2018-02-04T04:43:33.412Z,0.80
2018-02-04T04:46:01.138Z,0.80
2018-02-04T04:48:28.560Z,0.80
2018-02-04T04:50:55.984Z,0.80
2018-02-04T04:53:23.468Z,0.80
2018-02-04T04:55:50.922Z,0.80
2018-02-04T04:58:18.347Z,0.80
2018-02-04T05:00:46.866Z,0.80
2018-02-04T05:03:14.295Z,0.80
2018-02-04T05:05:41.721Z,0.80
2018-02-04T05:08:09.236Z,0.80
2018-02-04T05:10:36.665Z,0.80
2018-02-04T05:13:04.148Z,0.90
2018-02-04T05:15:31.926Z,0.90
2018-02-04T05:17:59.376Z,0.90
2018-02-04T05:20:26.834Z,0.90
2018-02-04T05:22:54.284Z,0.90
2018-02-04T05:25:21.705Z,0.90
2018-02-04T05:27:49.911Z,0.90
2018-02-04T05:30:17.340Z,0.90
2018-02-04T05:32:45.528Z,0.90
2018-02-04T05:35:12.950Z,0.90
2018-02-04T05:37:40.664Z,0.90
2018-02-04T05:40:08.124Z,0.90
2018-02-04T05:42:35.608Z,0.90
2018-02-04T05:45:03.344Z,0.90
2018-02-04T05:47:30.768Z,0.90
2018-02-04T05:49:58.959Z,1.00
2018-02-04T05:52:26.435Z,0.90
2018-02-04T05:54:53.869Z,1.00
2018-02-04T05:57:21.290Z,1.00
2018-02-04T05:59:49.009Z,1.00
2018-02-04T06:02:16.613Z,1.00
2018-02-04T06:04:44.040Z,1.00
2018-02-04T06:07:11.478Z,1.00
2018-02-04T06:09:38.899Z,0.90
2018-02-04T06:12:07.092Z,1.00
2018-02-04T06:14:34.589Z,0.90
2018-02-04T06:17:02.052Z,1.00
2018-02-04T06:19:29.585Z,1.00
2018-02-04T06:21:57.228Z,1.00
2018-02-04T06:24:24.652Z,1.00
2018-02-04T06:26:52.079Z,1.00
2018-02-04T06:29:19.515Z,1.00
2018-02-04T06:31:46.940Z,1.00
2018-02-04T06:34:15.129Z,1.00
2018-02-04T06:36:42.811Z,1.00
2018-02-04T06:39:10.271Z,1.00
2018-02-04T06:41:37.688Z,1.00
2018-02-04T06:44:05.892Z,1.00
2018-02-04T06:46:33.360Z,1.00
2018-02-04T06:49:00.811Z,0.90
2018-02-04T06:51:28.270Z,0.90
2018-02-04T06:53:55.732Z,0.90
2018-02-04T06:56:23.187Z,0.80
2018-02-04T06:58:50.651Z,0.80
2018-02-04T07:01:18.099Z,0.70
2018-02-04T07:03:45.523Z,0.70
2018-02-04T07:06:13.736Z,0.60
2018-02-04T07:08:41.160Z,0.60
2018-02-04T07:11:09.365Z,0.50
2018-02-04T07:13:37.128Z,0.50
2018-02-04T07:16:04.581Z,0.50
2018-02-04T07:18:32.044Z,0.40
2018-02-04T07:20:59.884Z,0.40
2018-02-04T07:23:27.346Z,0.40
2018-02-04T07:25:54.792Z,0.40
2018-02-04T07:28:23.224Z,0.40
2018-02-04T07:30:50.684Z,0.30
2018-02-04T07:33:18.108Z,0.40
2018-02-04T07:35:45.578Z,0.40
2018-02-04T07:38:13.004Z,0.50
2018-02-04T07:40:40.488Z,0.50
2018-02-04T07:43:08.251Z,0.60
2018-02-04T07:45:35.715Z,0.60
2018-02-04T07:48:03.135Z,0.70
2018-02-04T07:50:31.340Z,0.70
2018-02-04T07:52:58.762Z,0.70
2018-02-04T07:55:27.044Z,0.80
2018-02-04T07:57:55.248Z,0.90
2018-02-04T08:00:22.672Z,0.80
2018-02-04T08:02:50.893Z,0.90
2018-02-04T08:05:18.648Z,0.90
2018-02-04T08:07:46.072Z,0.90
2018-02-04T08:10:13.502Z,0.90
2018-02-04T08:12:41.237Z,1.00
2018-02-04T08:15:08.686Z,1.00
2018-02-04T08:17:36.104Z,1.10
2018-02-04T08:20:04.418Z,1.20
2018-02-04T08:22:31.839Z,1.20
2018-02-04T08:24:59.448Z,1.20
2018-02-04T08:27:27.123Z,1.30
2018-02-04T08:29:54.611Z,1.40
2018-02-04T08:32:22.828Z,1.50
2018-02-04T08:34:50.600Z,1.50
2018-02-04T08:37:18.040Z,1.60
2018-02-04T08:39:45.512Z,1.60
2018-02-04T08:42:13.079Z,1.70
2018-02-04T08:44:40.520Z,1.80
2018-02-04T08:47:07.943Z,1.80
2018-02-04T08:49:36.460Z,1.90
2018-02-04T08:52:03.884Z,1.90
2018-02-04T08:54:32.082Z,2.00
2018-02-04T08:56:59.565Z,2.00
2018-02-04T08:59:26.968Z,2.00
2018-02-04T09:01:55.179Z,2.10
2018-02-04T09:04:22.735Z,2.00
2018-02-04T09:06:50.169Z,2.00
2018-02-04T09:09:17.655Z,2.10
2018-02-04T09:11:45.103Z,2.10
2018-02-04T09:14:12.524Z,2.20
2018-02-04T09:16:40.738Z,2.20
2018-02-04T09:19:08.197Z,2.20
2018-02-04T09:21:35.656Z,2.20
2018-02-04T09:24:03.112Z,2.20
2018-02-04T09:26:30.549Z,2.20
2018-02-04T09:28:57.973Z,2.10
2018-02-04T09:31:25.492Z,2.10
2018-02-04T09:33:53.024Z,2.20
2018-02-04T09:36:20.443Z,2.30
2018-02-04T09:38:47.864Z,2.40
2018-02-04T09:41:15.715Z,2.40
2018-02-04T09:43:43.182Z,2.50
2018-02-04T09:46:10.643Z,2.50
2018-02-04T09:48:38.092Z,2.60
2018-02-04T09:51:05.592Z,2.60
2018-02-04T09:53:33.016Z,2.60
2018-02-04T09:56:00.454Z,2.50
2018-02-04T09:58:27.928Z,2.50
2018-02-04T10:00:55.361Z,2.50
2018-02-04T10:03:22.844Z,2.60
2018-02-04T10:05:50.319Z,2.60
2018-02-04T10:08:17.725Z,2.70
2018-02-04T10:10:45.520Z,2.80
2018-02-04T10:13:12.976Z,2.90
2018-02-04T10:15:40.428Z,3.10
2018-02-04T10:18:08.176Z,3.10
2018-02-04T10:20:35.652Z,3.20
2018-02-04T10:23:03.083Z,3.10
2018-02-04T10:25:30.771Z,3.00
2018-02-04T10:27:58.198Z,3.00
2018-02-04T10:30:26.386Z,2.80
2018-02-04T10:32:53.867Z,2.80
2018-02-04T10:35:21.248Z,2.70
2018-02-04T10:37:48.692Z,2.60
2018-02-04T10:40:16.227Z,2.60
2018-02-04T10:42:43.852Z,2.50
2018-02-04T10:45:11.256Z,2.50
2018-02-04T10:47:38.937Z,2.50
2018-02-04T10:50:06.372Z,2.50
2018-02-04T10:52:33.788Z,2.50
2018-02-04T10:55:01.512Z,2.40
2018-02-04T10:57:28.969Z,2.40
2018-02-04T10:59:56.436Z,2.40
2018-02-04T11:02:23.880Z,2.40
2018-02-04T11:04:51.344Z,2.50
2018-02-04T11:07:18.768Z,2.50
2018-02-04T11:09:46.256Z,2.50
2018-02-04T11:12:13.697Z,2.50
2018-02-04T11:14:41.129Z,2.60
2018-02-04T11:17:09.572Z,2.60
2018-02-04T11:19:36.999Z,2.50
2018-02-04T11:22:04.421Z,2.60
2018-02-04T11:24:32.636Z,2.60
2018-02-04T11:27:00.061Z,2.60
2018-02-04T11:29:27.484Z,2.60
2018-02-04T11:31:54.964Z,2.60
2018-02-04T11:34:23.154Z,2.60
2018-02-04T11:36:50.604Z,2.50
2018-02-04T11:39:18.099Z,2.60
2018-02-04T11:41:45.561Z,2.70
2018-02-04T11:44:12.980Z,2.90
2018-02-04T11:46:40.692Z,3.10
2018-02-04T11:49:08.104Z,3.20
2018-02-04T11:51:35.544Z,3.30
2018-02-04T11:54:04.064Z,3.40
2018-02-04T11:56:31.493Z,3.40
2018-02-04T11:58:58.927Z,3.50
2018-02-04T12:01:26.691Z,3.50
2018-02-04T12:03:54.157Z,3.40
2018-02-04T12:06:22.348Z,3.50
2018-02-04T12:08:49.834Z,3.50
2018-02-04T12:11:17.293Z,3.50
2018-02-04T12:13:44.724Z,3.40
2018-02-04T12:16:12.164Z,3.30
2018-02-04T12:18:40.362Z,3.00
2018-02-04T12:21:07.780Z,3.00
2018-02-04T12:23:35.221Z,3.00
2018-02-04T12:26:02.756Z,2.90
2018-02-04T12:28:30.180Z,2.90
2018-02-04T12:30:57.868Z,2.90
2018-02-04T12:33:25.457Z,2.90
2018-02-04T12:35:52.884Z,2.90
2018-02-04T12:38:20.653Z,2.90
2018-02-04T12:40:48.112Z,2.90
2018-02-04T12:43:15.556Z,3.00
2018-02-04T12:45:42.985Z,3.00
2018-02-04T12:48:11.172Z,3.10
2018-02-04T12:50:38.596Z,3.10
2018-02-04T12:53:06.112Z,3.10
2018-02-04T12:55:33.547Z,3.20
2018-02-04T12:58:01.020Z,3.30
2018-02-04T13:00:28.647Z,3.40
2018-02-04T13:02:56.843Z,3.60
2018-02-04T13:05:24.261Z,3.60
2018-02-04T13:07:51.692Z,3.70
2018-02-04T13:10:19.144Z,3.80
2018-02-04T13:12:46.561Z,3.80
2018-02-04T13:15:14.266Z,3.90
2018-02-04T13:17:41.712Z,4.00
2018-02-04T13:20:09.141Z,4.10
2018-02-04T13:22:36.615Z,4.20
2018-02-04T13:25:04.076Z,4.30
2018-02-04T13:27:31.532Z,4.20
2018-02-04T13:29:58.993Z,4.30
2018-02-04T13:32:26.436Z,4.40
2018-02-04T13:34:54.743Z,4.40
2018-02-04T13:37:22.488Z,4.50
2018-02-04T13:39:49.912Z,4.50
2018-02-04T13:42:18.096Z,4.60
2018-02-04T13:44:45.782Z,4.60
2018-02-04T13:47:13.208Z,4.70
2018-02-04T13:49:41.396Z,4.60
2018-02-04T13:52:08.839Z,4.60
2018-02-04T13:54:37.033Z,4.40
2018-02-04T13:57:04.500Z,4.40
2018-02-04T13:59:31.960Z,4.50
2018-02-04T14:01:59.384Z,4.60
2018-02-04T14:04:26.873Z,4.60
2018-02-04T14:06:54.312Z,4.60
2018-02-04T14:09:21.732Z,4.50
2018-02-04T14:11:49.152Z,4.40
2018-02-04T14:14:16.605Z,4.30
2018-02-04T14:16:44.033Z,4.20
2018-02-04T14:19:11.447Z,4.20
2018-02-04T14:21:39.996Z,4.10
2018-02-04T14:24:07.504Z,4.10
2018-02-04T14:26:35.721Z,4.10
2018-02-04T14:29:03.293Z,4.10
2018-02-04T14:31:30.752Z,4.10
2018-02-04T14:33:58.177Z,4.10
2018-02-04T14:36:25.864Z,4.10
2018-02-04T14:38:53.294Z,4.10
2018-02-04T14:41:21.476Z,4.20
2018-02-04T14:43:49.176Z,4.20
2018-02-04T14:46:16.710Z,4.20
2018-02-04T14:48:44.972Z,4.20
2018-02-04T14:51:12.456Z,4.20
2018-02-04T14:53:39.912Z,4.20
2018-02-04T14:56:07.389Z,4.20
2018-02-04T14:58:34.832Z,4.10
2018-02-04T15:01:02.260Z,4.10
2018-02-04T15:03:29.739Z,4.10
2018-02-04T15:05:57.168Z,4.10
2018-02-04T15:08:24.647Z,4.10
2018-02-04T15:10:52.111Z,4.10
2018-02-04T15:13:19.548Z,4.00
2018-02-04T15:15:47.064Z,4.00
2018-02-04T15:18:14.504Z,3.90
2018-02-04T15:20:41.940Z,3.90
2018-02-04T15:23:09.364Z,3.80
2018-02-04T15:25:37.557Z,3.80
2018-02-04T15:28:05.028Z,3.70
2018-02-04T15:30:32.668Z,3.70
2018-02-04T15:33:00.142Z,3.70
2018-02-04T15:35:27.604Z,3.60
2018-02-04T15:37:55.066Z,3.60
2018-02-04T15:40:22.484Z,3.60
2018-02-04T15:42:50.080Z,3.50
2018-02-04T15:45:17.508Z,3.50
2018-02-04T15:47:44.990Z,3.50
2018-02-04T15:50:12.763Z,3.40
2018-02-04T15:52:40.424Z,3.40
2018-02-04T15:55:07.847Z,3.30
2018-02-04T15:57:35.335Z,3.30
2018-02-04T16:00:02.762Z,3.30
2018-02-04T16:02:30.179Z,3.30
2018-02-04T16:04:57.611Z,3.20
2018-02-04T16:07:25.068Z,3.20
2018-02-04T16:09:52.492Z,3.20
2018-02-04T16:12:20.180Z,3.20
2018-02-04T16:14:47.612Z,3.10
2018-02-04T16:17:15.044Z,3.10
2018-02-04T16:19:42.652Z,3.10
2018-02-04T16:22:10.113Z,3.00
2018-02-04T16:24:37.577Z,3.00
2018-02-04T16:27:05.019Z,3.00
2018-02-04T16:29:32.482Z,3.00
2018-02-04T16:31:59.916Z,3.00
2018-02-04T16:34:27.359Z,3.00
2018-02-04T16:36:55.568Z,3.00
2018-02-04T16:39:23.024Z,3.00
2018-02-04T16:41:50.488Z,3.00
2018-02-04T16:44:17.934Z,2.90
2018-02-04T16:46:45.344Z,2.90
2018-02-04T16:49:13.548Z,2.90
2018-02-04T16:51:40.984Z,2.90
2018-02-04T16:54:09.215Z,2.90
2018-02-04T16:56:36.671Z,2.90
2018-02-04T16:59:04.120Z,2.90
2018-02-04T17:01:31.553Z,2.90
2018-02-04T17:03:59.037Z,2.80
2018-02-04T17:06:26.470Z,2.80
2018-02-04T17:08:53.966Z,2.80
2018-02-04T17:11:21.430Z,2.80
2018-02-04T17:13:48.859Z,2.80
2018-02-04T17:16:16.350Z,2.80
2018-02-04T17:18:43.803Z,2.80
2018-02-04T17:21:11.230Z,2.80
2018-02-04T17:23:38.737Z,2.70
2018-02-04T17:26:06.137Z,2.70
2018-02-04T17:28:33.604Z,2.70
2018-02-04T17:31:01.045Z,2.70
2018-02-04T17:33:28.481Z,2.70
2018-02-04T17:35:56.696Z,2.70
2018-02-04T17:38:24.132Z,2.70
2018-02-04T17:40:51.812Z,2.80
2018-02-04T17:43:19.243Z,2.70
2018-02-04T17:45:46.728Z,2.70
2018-02-04T17:48:14.537Z,2.70
2018-02-04T17:50:41.968Z,2.70
2018-02-04T17:53:09.400Z,2.70
2018-02-04T17:55:37.078Z,2.80
2018-02-04T17:58:04.500Z,2.80
2018-02-04T18:00:31.923Z,2.80
2018-02-04T18:02:59.360Z,2.80
2018-02-04T18:05:26.803Z,2.80
2018-02-04T18:07:54.270Z,2.80
2018-02-04T18:10:21.704Z,2.80
2018-02-04T18:12:49.136Z,2.80
2018-02-04T18:15:16.564Z,2.80
2018-02-04T18:17:44.294Z,2.80
2018-02-04T18:20:11.733Z,2.80
2018-02-04T18:22:39.148Z,2.80
2018-02-04T18:25:07.584Z,2.70
2018-02-04T18:27:35.144Z,2.80
2018-02-04T18:30:02.600Z,2.80
2018-02-04T18:32:30.356Z,2.70
2018-02-04T18:34:57.788Z,2.80
2018-02-04T18:37:25.289Z,2.70
2018-02-04T18:39:52.837Z,2.80
2018-02-04T18:42:20.264Z,2.80
2018-02-04T18:44:47.703Z,2.80
2018-02-04T18:47:15.954Z,2.80
2018-02-04T18:49:43.373Z,2.80
2018-02-04T18:52:10.808Z,2.80
2018-02-04T18:54:38.600Z,2.80
2018-02-04T18:57:06.052Z,2.80
2018-02-04T18:59:33.484Z,2.80
2018-02-04T19:02:01.176Z,2.80
2018-02-04T19:04:28.632Z,2.80
2018-02-04T19:06:56.071Z,2.80
2018-02-04T19:09:23.870Z,2.80
2018-02-04T19:11:51.303Z,2.80
2018-02-04T19:14:18.742Z,2.80
2018-02-04T19:16:46.242Z,2.80
2018-02-04T19:19:13.684Z,2.80
2018-02-04T19:21:41.172Z,2.80
2018-02-04T19:24:08.643Z,2.80
2018-02-04T19:26:36.079Z,2.80
2018-02-04T19:29:03.495Z,2.80
2018-02-04T19:31:31.280Z,2.80
2018-02-04T19:33:58.736Z,2.80
2018-02-04T19:36:26.192Z,2.80
2018-02-04T19:38:53.657Z,2.80
2018-02-04T19:41:21.108Z,2.80
2018-02-04T19:43:48.662Z,2.80
2018-02-04T19:46:16.334Z,2.80
2018-02-04T19:48:43.799Z,2.80
2018-02-04T19:51:11.237Z,2.80
2018-02-04T19:53:38.677Z,2.80
2018-02-04T19:56:06.152Z,2.80
2018-02-04T19:58:33.592Z,2.80
2018-02-04T20:01:01.036Z,2.80
2018-02-04T20:03:28.464Z,2.80
2018-02-04T20:05:56.672Z,2.80
2018-02-04T20:08:24.160Z,2.80
2018-02-04T20:10:51.628Z,2.80
2018-02-04T20:13:19.075Z,2.80
2018-02-04T20:15:46.517Z,2.80
2018-02-04T20:18:13.951Z,2.80
2018-02-04T20:20:44.782Z,2.80
2018-02-04T20:23:12.796Z,2.80
2018-02-04T20:25:40.240Z,2.70
2018-02-04T20:28:07.663Z,2.70
2018-02-04T20:30:36.199Z,2.70
2018-02-04T20:33:15.724Z,2.70
2018-02-04T20:35:43.491Z,2.70
2018-02-04T20:38:10.979Z,2.70
2018-02-04T20:40:38.397Z,2.70
2018-02-04T20:43:06.176Z,2.70
2018-02-04T20:45:33.624Z,2.60
2018-02-04T20:48:01.056Z,2.60
2018-02-04T20:50:28.724Z,2.60
2018-02-04T20:52:56.184Z,2.50
2018-02-04T20:55:24.377Z,2.50
2018-02-04T20:57:52.070Z,2.50
2018-02-04T21:00:19.518Z,2.50
2018-02-04T21:02:46.987Z,2.60
2018-02-04T21:05:14.740Z,2.50
2018-02-04T21:07:42.170Z,2.60
2018-02-04T21:10:09.600Z,2.50
2018-02-04T21:12:38.112Z,2.50
2018-02-04T21:15:05.550Z,2.50
2018-02-04T21:17:32.972Z,2.50
2018-02-04T21:20:01.194Z,2.50
2018-02-04T21:22:28.619Z,2.50
2018-02-04T21:24:56.868Z,2.50
2018-02-04T21:27:24.415Z,2.50
2018-02-04T21:29:51.950Z,2.50
2018-02-04T21:32:19.402Z,2.50
2018-02-04T21:34:47.068Z,2.50
2018-02-04T21:37:14.500Z,2.50
2018-02-04T21:39:41.932Z,2.60
2018-02-04T21:42:09.660Z,2.60
2018-02-04T21:44:37.111Z,2.50
2018-02-04T21:47:04.569Z,2.60
2018-02-04T21:49:32.024Z,2.50
2018-02-04T21:51:59.448Z,2.60
2018-02-04T21:54:26.939Z,2.60
2018-02-04T21:56:54.728Z,2.60
2018-02-04T21:59:22.157Z,2.60
2018-02-04T22:01:49.592Z,2.50
2018-02-04T22:04:17.277Z,2.50
2018-02-04T22:06:44.733Z,2.50
2018-02-04T22:09:12.190Z,2.50
2018-02-04T22:11:39.638Z,2.60
2018-02-04T22:14:07.102Z,2.50
2018-02-04T22:16:34.537Z,2.50
2018-02-04T22:19:02.228Z,2.50
2018-02-04T22:21:29.668Z,2.50
2018-02-04T22:23:57.101Z,2.50
2018-02-04T22:26:24.799Z,2.50
2018-02-04T22:28:52.300Z,2.50
2018-02-04T22:31:19.825Z,2.50
2018-02-04T22:33:47.267Z,2.50
2018-02-04T22:36:14.731Z,2.50
2018-02-04T22:38:42.159Z,2.50
2018-02-04T22:41:09.604Z,2.50
2018-02-04T22:43:37.820Z,2.50
2018-02-04T22:46:05.252Z,2.50
2018-02-04T22:48:33.040Z,2.50
2018-02-04T22:51:00.504Z,2.50
2018-02-04T22:53:27.932Z,2.50
2018-02-04T22:55:55.740Z,2.50
2018-02-04T22:58:23.168Z,2.50
2018-02-04T23:00:50.606Z,2.50
2018-02-04T23:03:18.045Z,2.50
2018-02-04T23:05:46.274Z,2.50
2018-02-04T23:08:13.709Z,2.50
2018-02-04T23:10:41.484Z,2.50
2018-02-04T23:13:08.959Z,2.50
2018-02-04T23:15:36.397Z,2.50
2018-02-04T23:18:03.872Z,2.50
2018-02-04T23:20:31.352Z,2.60
2018-02-04T23:22:58.773Z,2.50
2018-02-04T23:25:26.537Z,2.50
2018-02-04T23:27:53.974Z,2.50
2018-02-04T23:30:21.391Z,2.50
2018-02-04T23:32:49.110Z,2.50
2018-02-04T23:35:16.542Z,2.50
2018-02-04T23:37:44.030Z,2.60
2018-02-04T23:40:11.712Z,2.60
2018-02-04T23:42:39.276Z,2.60
2018-02-04T23:45:06.808Z,2.60
2018-02-04T23:47:34.612Z,2.50
2018-02-04T23:50:02.156Z,2.50
2018-02-04T23:52:29.588Z,2.50
2018-02-04T23:54:57.356Z,2.60
2018-02-04T23:57:24.812Z,2.60
2018-02-04T23:59:52.243Z,2.60
